createdAt,value
2023-04-30T00:01:59.077Z,100.00
2023-04-30T00:04:11.742Z,100.00
2023-04-30T00:06:25.553Z,100.00
2023-04-30T00:08:39.416Z,100.00
2023-04-30T00:10:52.021Z,100.00
2023-04-30T00:13:04.559Z,100.00
2023-04-30T00:15:17.154Z,100.00
2023-04-30T00:17:29.889Z,100.00
2023-04-30T00:19:42.754Z,100.00
2023-04-30T00:21:55.356Z,100.00
2023-04-30T00:24:07.972Z,100.00
2023-04-30T00:26:20.624Z,100.00
2023-04-30T00:28:33.228Z,100.00
2023-04-30T00:30:46.850Z,100.00
2023-04-30T00:32:59.503Z,100.00
2023-04-30T00:35:12.486Z,100.00
2023-04-30T00:37:25.044Z,100.00
2023-04-30T00:39:37.761Z,100.00
2023-04-30T00:41:50.391Z,100.00
2023-04-30T00:44:03.017Z,100.00
2023-04-30T00:46:15.763Z,100.00
2023-04-30T00:48:28.381Z,100.00
2023-04-30T00:50:41.613Z,100.00
2023-04-30T00:52:54.319Z,100.00
2023-04-30T00:55:07.237Z,100.00
2023-04-30T00:57:20.618Z,100.00
2023-04-30T00:59:33.435Z,100.00
2023-04-30T01:01:46.252Z,100.00
2023-04-30T01:03:59.246Z,100.00
2023-04-30T01:06:11.843Z,100.00
2023-04-30T01:08:25.206Z,100.00
2023-04-30T01:11:23.491Z,100.00
2023-04-30T01:13:52.568Z,100.00
2023-04-30T01:16:21.942Z,100.00
2023-04-30T01:18:44.182Z,100.00
2023-04-30T01:21:04.445Z,100.00
2023-04-30T01:23:32.347Z,100.00
2023-04-30T01:26:07.711Z,100.00
2023-04-30T01:28:20.619Z,100.00
2023-04-30T01:30:34.977Z,100.00
2023-04-30T01:32:47.602Z,100.00
2023-04-30T01:35:02.414Z,100.00
2023-04-30T01:37:31.598Z,100.00
2023-04-30T01:39:56.560Z,100.00
2023-04-30T01:43:00.458Z,100.00
2023-04-30T01:45:24.773Z,100.00
2023-04-30T01:47:57.485Z,100.00
2023-04-30T01:50:21.379Z,100.00
2023-04-30T01:52:46.191Z,100.00
2023-04-30T01:55:11.798Z,100.00
2023-04-30T01:57:28.693Z,100.00
2023-04-30T01:59:43.371Z,100.00
2023-04-30T02:01:56.337Z,100.00
2023-04-30T02:04:08.982Z,100.00
2023-04-30T02:06:21.760Z,100.00
2023-04-30T02:08:34.360Z,100.00
2023-04-30T02:10:47.124Z,100.00
2023-04-30T02:12:59.702Z,100.00
2023-04-30T02:15:12.817Z,100.00
2023-04-30T02:17:25.498Z,100.00
2023-04-30T02:19:38.069Z,100.00
2023-04-30T02:21:50.716Z,100.00
2023-04-30T02:24:03.590Z,100.00
2023-04-30T02:26:16.115Z,100.00
2023-04-30T02:28:29.097Z,100.00
2023-04-30T02:30:41.780Z,99.94
2023-04-30T02:32:54.395Z,99.98
2023-04-30T02:35:07.213Z,100.00
2023-04-30T02:37:19.786Z,99.97
2023-04-30T02:39:32.630Z,99.97
2023-04-30T02:41:45.283Z,100.00
2023-04-30T02:43:57.852Z,100.00
2023-04-30T02:46:10.437Z,100.00
2023-04-30T02:48:23.133Z,100.00
2023-04-30T02:50:35.693Z,100.00
2023-04-30T02:52:48.334Z,100.00
2023-04-30T02:55:00.852Z,100.00
2023-04-30T02:57:13.439Z,100.00
2023-04-30T02:59:28.629Z,100.00
2023-04-30T03:01:41.373Z,100.00
2023-04-30T03:03:53.998Z,100.00
2023-04-30T03:06:06.721Z,100.00
2023-04-30T03:08:19.309Z,100.00
2023-04-30T03:10:31.863Z,100.00
2023-04-30T03:12:44.519Z,100.00
2023-04-30T03:14:57.151Z,100.00
2023-04-30T03:17:09.866Z,100.00
2023-04-30T03:19:25.123Z,100.00
2023-04-30T03:21:37.669Z,100.00
2023-04-30T03:23:50.288Z,100.00
2023-04-30T03:26:03.102Z,100.00
2023-04-30T03:28:15.944Z,100.00
2023-04-30T03:30:28.603Z,100.00
2023-04-30T03:32:41.274Z,100.00
2023-04-30T03:34:53.964Z,100.00
2023-04-30T03:37:06.565Z,100.00
2023-04-30T03:39:19.208Z,100.00
2023-04-30T03:41:32.113Z,100.00
2023-04-30T03:43:44.758Z,100.00
2023-04-30T03:45:57.497Z,100.00
2023-04-30T03:48:10.242Z,100.00
2023-04-30T03:50:22.820Z,100.00
2023-04-30T03:52:36.768Z,100.00
2023-04-30T03:54:49.308Z,100.00
2023-04-30T03:57:04.340Z,100.00
2023-04-30T03:59:17.460Z,100.00
2023-04-30T04:01:32.587Z,100.00
2023-04-30T04:03:45.304Z,100.00
2023-04-30T04:05:57.918Z,100.00
2023-04-30T04:08:10.869Z,100.00
2023-04-30T04:10:23.452Z,100.00
2023-04-30T04:12:36.041Z,100.00
2023-04-30T04:14:48.651Z,100.00
2023-04-30T04:17:01.957Z,100.00
2023-04-30T04:19:14.515Z,100.00
2023-04-30T04:21:27.071Z,100.00
2023-04-30T04:23:39.643Z,100.00
2023-04-30T04:25:52.352Z,100.00
2023-04-30T04:28:05.057Z,100.00
2023-04-30T04:30:18.158Z,100.00
2023-04-30T04:32:32.726Z,100.00
2023-04-30T04:34:45.821Z,100.00
2023-04-30T04:36:58.900Z,100.00
2023-04-30T04:39:11.699Z,100.00
2023-04-30T04:41:25.363Z,100.00
2023-04-30T04:43:38.496Z,100.00
2023-04-30T04:45:52.500Z,100.00
2023-04-30T04:48:05.317Z,100.00
2023-04-30T04:50:18.169Z,100.00
2023-04-30T04:52:30.755Z,100.00
2023-04-30T04:54:43.304Z,100.00
2023-04-30T04:56:55.890Z,100.00
2023-04-30T04:59:08.434Z,99.95
2023-04-30T05:01:21.296Z,99.83
2023-04-30T05:03:34.467Z,99.49
2023-04-30T05:05:47.038Z,99.28
2023-04-30T05:07:59.563Z,99.06
2023-04-30T05:10:12.116Z,98.81
2023-04-30T05:12:24.737Z,98.83
2023-04-30T05:14:37.464Z,98.79
2023-04-30T05:16:50.061Z,98.49
2023-04-30T05:19:02.687Z,98.66
2023-04-30T05:21:15.384Z,98.60
2023-04-30T05:23:28.453Z,98.16
2023-04-30T05:25:41.180Z,97.58
2023-04-30T05:27:53.722Z,96.88
2023-04-30T05:30:09.409Z,96.48
2023-04-30T05:32:27.885Z,95.99
2023-04-30T05:34:40.488Z,95.75
2023-04-30T05:36:53.139Z,95.13
2023-04-30T05:39:05.699Z,94.27
2023-04-30T05:41:18.235Z,93.93
2023-04-30T05:43:30.805Z,93.63
2023-04-30T05:45:43.385Z,92.74
2023-04-30T05:47:56.080Z,92.54
2023-04-30T05:50:09.880Z,92.42
2023-04-30T05:52:22.399Z,91.61
2023-04-30T05:54:34.990Z,91.10
2023-04-30T05:56:47.534Z,90.82
2023-04-30T05:59:00.037Z,90.66
2023-04-30T06:01:12.696Z,90.39
2023-04-30T06:03:25.458Z,89.83
2023-04-30T06:05:38.083Z,89.47
2023-04-30T06:07:50.682Z,88.81
2023-04-30T06:10:03.543Z,88.19
2023-04-30T06:12:16.105Z,88.39
2023-04-30T06:14:28.705Z,87.82
2023-04-30T06:16:41.398Z,87.80
2023-04-30T06:18:54.209Z,86.97
2023-04-30T06:21:06.775Z,86.92
2023-04-30T06:23:19.294Z,85.95
2023-04-30T06:25:31.824Z,84.00
2023-04-30T06:27:44.333Z,83.12
2023-04-30T06:29:57.121Z,82.75
2023-04-30T06:32:09.770Z,82.82
2023-04-30T06:34:22.516Z,82.45
2023-04-30T06:36:35.107Z,82.03
2023-04-30T06:38:48.013Z,81.01
2023-04-30T06:41:00.701Z,80.62
2023-04-30T06:43:13.236Z,80.32
2023-04-30T06:45:25.773Z,80.17
2023-04-30T06:47:38.539Z,80.10
2023-04-30T06:49:51.165Z,78.94
2023-04-30T06:52:04.537Z,78.68
2023-04-30T06:54:17.100Z,78.44
2023-04-30T06:56:29.651Z,77.06
2023-04-30T06:58:42.319Z,76.36
2023-04-30T07:00:54.827Z,75.79
2023-04-30T07:03:07.999Z,76.02
2023-04-30T07:05:20.609Z,75.39
2023-04-30T07:07:33.725Z,75.46
2023-04-30T07:09:46.277Z,75.24
2023-04-30T07:11:58.839Z,74.19
2023-04-30T07:14:11.476Z,73.84
2023-04-30T07:16:25.421Z,73.39
2023-04-30T07:18:38.251Z,72.99
2023-04-30T07:20:50.788Z,72.53
2023-04-30T07:23:03.424Z,71.59
2023-04-30T07:25:15.949Z,71.17
2023-04-30T07:27:28.451Z,70.69
2023-04-30T07:29:41.116Z,70.44
2023-04-30T07:31:53.757Z,70.79
2023-04-30T07:34:06.378Z,69.65
2023-04-30T07:36:18.886Z,68.74
2023-04-30T07:38:31.415Z,68.96
2023-04-30T07:40:43.967Z,67.91
2023-04-30T07:42:56.630Z,67.92
2023-04-30T07:45:09.615Z,67.82
2023-04-30T07:47:22.248Z,67.85
2023-04-30T07:49:34.791Z,66.42
2023-04-30T07:51:47.428Z,65.20
2023-04-30T07:54:00.787Z,64.21
2023-04-30T07:56:13.316Z,63.67
2023-04-30T07:58:25.919Z,61.94
2023-04-30T08:00:38.609Z,61.99
2023-04-30T08:02:51.308Z,61.95
2023-04-30T08:05:04.158Z,60.76
2023-04-30T08:07:16.717Z,60.88
2023-04-30T08:09:29.235Z,59.77
2023-04-30T08:11:42.142Z,58.25
2023-04-30T08:13:55.563Z,57.23
2023-04-30T08:16:08.567Z,56.88
2023-04-30T08:18:22.289Z,57.23
2023-04-30T08:20:36.504Z,56.87
2023-04-30T08:22:49.875Z,55.89
2023-04-30T08:25:02.621Z,53.99
2023-04-30T08:27:16.117Z,53.76
2023-04-30T08:29:28.695Z,53.77
2023-04-30T08:31:41.273Z,53.03
2023-04-30T08:33:53.811Z,53.07
2023-04-30T08:36:06.681Z,52.23
2023-04-30T08:38:19.270Z,51.25
2023-04-30T08:40:50.307Z,50.83
2023-04-30T08:43:09.084Z,50.39
2023-04-30T08:45:22.022Z,49.98
2023-04-30T08:47:34.730Z,47.35
2023-04-30T08:49:47.374Z,47.46
2023-04-30T08:52:01.123Z,47.13
2023-04-30T08:54:14.244Z,46.17
2023-04-30T08:56:26.888Z,45.84
2023-04-30T08:58:40.672Z,45.10
2023-04-30T09:00:53.252Z,45.26
2023-04-30T09:03:07.215Z,45.61
2023-04-30T09:05:19.782Z,44.65
2023-04-30T09:07:33.669Z,44.35
2023-04-30T09:09:46.279Z,43.41
2023-04-30T09:12:19.351Z,43.03
2023-04-30T09:14:34.057Z,42.50
2023-04-30T09:16:51.396Z,42.41
2023-04-30T09:19:04.009Z,42.08
2023-04-30T09:21:16.932Z,41.72
2023-04-30T09:23:30.458Z,42.27
2023-04-30T09:25:43.445Z,42.25
2023-04-30T09:28:10.385Z,42.29
2023-04-30T09:30:32.463Z,41.95
2023-04-30T09:32:57.106Z,41.15
2023-04-30T09:35:29.354Z,40.77
2023-04-30T09:37:41.993Z,40.85
2023-04-30T09:39:55.707Z,41.02
2023-04-30T09:42:10.098Z,41.00
2023-04-30T09:44:30.543Z,39.69
2023-04-30T09:46:44.514Z,38.57
2023-04-30T09:49:02.211Z,38.87
2023-04-30T09:51:15.251Z,39.24
2023-04-30T09:53:28.043Z,38.14
2023-04-30T09:55:45.675Z,39.41
2023-04-30T09:57:59.497Z,38.22
2023-04-30T10:00:12.673Z,37.63
2023-04-30T10:02:26.283Z,37.28
2023-04-30T10:04:42.258Z,37.37
2023-04-30T10:06:59.159Z,37.17
2023-04-30T10:09:15.926Z,37.01
2023-04-30T10:11:32.836Z,36.87
2023-04-30T10:14:01.808Z,37.18
2023-04-30T10:16:25.936Z,35.94
2023-04-30T10:18:42.550Z,36.12
2023-04-30T10:20:57.027Z,35.26
2023-04-30T10:23:09.918Z,35.13
2023-04-30T10:25:23.496Z,35.14
2023-04-30T10:27:36.279Z,34.36
2023-04-30T10:29:49.336Z,34.87
2023-04-30T10:32:04.910Z,34.06
2023-04-30T10:34:59.925Z,34.20
2023-04-30T10:37:27.549Z,33.19
2023-04-30T10:39:40.611Z,31.85
2023-04-30T10:42:02.450Z,30.54
2023-04-30T10:44:22.523Z,32.13
2023-04-30T10:46:36.419Z,32.70
2023-04-30T10:48:49.840Z,31.49
2023-04-30T10:51:02.420Z,31.51
2023-04-30T10:53:18.539Z,30.62
2023-04-30T10:55:32.144Z,30.71
2023-04-30T10:57:46.587Z,30.38
2023-04-30T11:00:08.390Z,29.77
2023-04-30T11:02:21.400Z,29.68
2023-04-30T11:04:34.101Z,29.13
2023-04-30T11:07:10.009Z,27.32
2023-04-30T11:09:40.873Z,28.39
2023-04-30T11:12:05.459Z,27.83
2023-04-30T11:14:21.232Z,27.95
2023-04-30T11:16:37.102Z,27.92
2023-04-30T11:18:51.563Z,26.75
2023-04-30T11:21:04.202Z,27.41
2023-04-30T11:23:25.352Z,27.64
2023-04-30T11:25:48.398Z,26.30
2023-04-30T11:28:01.990Z,25.57
2023-04-30T11:30:18.722Z,25.51
2023-04-30T11:32:35.833Z,25.36
2023-04-30T11:34:49.137Z,25.51
2023-04-30T11:37:03.394Z,24.92
2023-04-30T11:39:17.825Z,25.03
2023-04-30T11:41:30.729Z,25.45
2023-04-30T11:43:43.286Z,24.68
2023-04-30T11:46:05.791Z,23.48
2023-04-30T11:48:18.414Z,23.12
2023-04-30T11:50:33.663Z,23.20
2023-04-30T11:52:51.336Z,23.88
2023-04-30T11:55:12.720Z,23.27
2023-04-30T11:57:25.319Z,22.72
2023-04-30T11:59:42.277Z,21.97
2023-04-30T12:01:54.972Z,22.73
2023-04-30T12:04:09.143Z,22.62
2023-04-30T12:06:23.946Z,22.62
2023-04-30T12:08:36.717Z,21.49
2023-04-30T12:10:49.238Z,21.52
2023-04-30T12:13:02.663Z,21.60
2023-04-30T12:15:18.921Z,21.74
2023-04-30T12:17:36.182Z,21.35
2023-04-30T12:19:48.893Z,21.08
2023-04-30T12:22:01.652Z,19.79
2023-04-30T12:24:16.171Z,19.21
2023-04-30T12:26:39.917Z,19.71
2023-04-30T12:28:52.656Z,20.55
2023-04-30T12:31:06.034Z,20.14
2023-04-30T12:33:18.921Z,20.12
2023-04-30T12:35:32.481Z,20.65
2023-04-30T12:37:46.541Z,20.57
2023-04-30T12:40:00.181Z,20.64
2023-04-30T12:42:13.138Z,20.35
2023-04-30T12:44:27.868Z,19.73
2023-04-30T12:46:41.134Z,19.93
2023-04-30T12:48:54.576Z,19.93
2023-04-30T12:51:08.004Z,20.60
2023-04-30T12:53:21.830Z,20.18
2023-04-30T12:55:39.175Z,20.06
2023-04-30T12:58:08.705Z,20.84
2023-04-30T13:00:22.826Z,20.77
2023-04-30T13:02:35.407Z,20.45
2023-04-30T13:04:49.343Z,19.88
2023-04-30T13:07:02.984Z,19.96
2023-04-30T13:09:16.024Z,19.70
2023-04-30T13:11:28.765Z,20.21
2023-04-30T13:13:42.176Z,19.64
2023-04-30T13:15:54.793Z,19.46
2023-04-30T13:18:10.855Z,19.85
2023-04-30T13:20:24.927Z,21.07
2023-04-30T13:22:37.757Z,21.06
2023-04-30T13:24:50.276Z,20.87
2023-04-30T13:27:04.011Z,20.09
2023-04-30T13:29:16.708Z,20.50
2023-04-30T13:31:29.343Z,21.07
2023-04-30T13:33:42.190Z,21.18
2023-04-30T13:35:54.728Z,21.01
2023-04-30T13:38:07.455Z,21.22
2023-04-30T13:40:20.887Z,22.20
2023-04-30T13:42:33.636Z,21.27
2023-04-30T13:44:47.814Z,21.88
2023-04-30T13:47:00.380Z,22.24
2023-04-30T13:49:12.955Z,22.03
2023-04-30T13:51:27.980Z,21.92
2023-04-30T13:53:40.618Z,22.31
2023-04-30T13:55:53.908Z,22.48
2023-04-30T13:58:06.486Z,22.93
2023-04-30T14:00:19.419Z,23.63
2023-04-30T14:02:32.036Z,23.90
2023-04-30T14:04:54.664Z,23.79
2023-04-30T14:07:15.276Z,23.62
2023-04-30T14:09:27.933Z,23.96
2023-04-30T14:11:41.521Z,24.63
2023-04-30T14:13:55.024Z,25.38
2023-04-30T14:16:07.982Z,25.92
2023-04-30T14:18:22.749Z,25.21
2023-04-30T14:20:35.610Z,25.44
2023-04-30T14:22:48.104Z,25.29
2023-04-30T14:25:00.631Z,25.18
2023-04-30T14:27:13.522Z,25.72
2023-04-30T14:29:26.763Z,24.99
2023-04-30T14:31:39.358Z,25.74
2023-04-30T14:33:51.884Z,25.97
2023-04-30T14:36:04.810Z,25.98
2023-04-30T14:38:17.322Z,25.85
2023-04-30T14:40:30.810Z,25.57
2023-04-30T14:42:43.411Z,25.96
2023-04-30T14:44:55.958Z,25.77
2023-04-30T14:47:08.508Z,26.20
2023-04-30T14:49:21.227Z,26.34
2023-04-30T14:51:33.820Z,26.27
2023-04-30T14:53:46.405Z,25.37
2023-04-30T14:55:59.000Z,25.93
2023-04-30T14:58:12.281Z,26.48
2023-04-30T15:00:25.194Z,26.77
2023-04-30T15:02:38.061Z,26.36
2023-04-30T15:04:50.920Z,25.17
2023-04-30T15:07:04.372Z,26.29
2023-04-30T15:09:16.970Z,26.45
2023-04-30T15:11:29.702Z,26.71
2023-04-30T15:13:42.240Z,27.28
2023-04-30T15:15:54.827Z,28.10
2023-04-30T15:18:07.507Z,28.52
2023-04-30T15:20:20.205Z,28.62
2023-04-30T15:22:35.895Z,28.00
2023-04-30T15:24:48.447Z,28.36
2023-04-30T15:27:01.013Z,28.20
2023-04-30T15:29:13.566Z,28.60
2023-04-30T15:31:26.791Z,28.69
2023-04-30T15:33:42.000Z,29.23
2023-04-30T15:35:55.003Z,29.48
2023-04-30T15:38:07.714Z,29.47
2023-04-30T15:40:20.454Z,29.22
2023-04-30T15:42:33.211Z,29.66
2023-04-30T15:44:45.765Z,29.92
2023-04-30T15:46:58.536Z,30.02
2023-04-30T15:49:11.184Z,30.41
2023-04-30T15:51:23.822Z,29.99
2023-04-30T15:53:36.552Z,30.58
2023-04-30T15:55:49.654Z,30.52
2023-04-30T15:58:02.332Z,30.87
2023-04-30T16:00:15.627Z,30.65
2023-04-30T16:02:28.339Z,30.83
2023-04-30T16:04:41.400Z,30.54
2023-04-30T16:06:55.147Z,30.37
2023-04-30T16:09:08.898Z,30.30
2023-04-30T16:11:23.862Z,31.18
2023-04-30T16:13:36.557Z,31.30
2023-04-30T16:15:49.580Z,31.64
2023-04-30T16:18:02.180Z,31.95
2023-04-30T16:20:15.143Z,32.17
2023-04-30T16:22:28.218Z,32.38
2023-04-30T16:24:41.109Z,32.08
2023-04-30T16:26:54.038Z,32.24
2023-04-30T16:29:06.600Z,32.44
2023-04-30T16:31:22.695Z,32.57
2023-04-30T16:33:35.345Z,32.43
2023-04-30T16:35:48.441Z,32.70
2023-04-30T16:38:02.466Z,32.10
2023-04-30T16:40:15.030Z,32.33
2023-04-30T16:42:27.916Z,32.49
2023-04-30T16:44:40.489Z,32.56
2023-04-30T16:46:53.002Z,32.87
2023-04-30T16:49:05.666Z,32.83
2023-04-30T16:51:18.208Z,33.31
2023-04-30T16:53:30.867Z,33.36
2023-04-30T16:55:43.546Z,33.39
2023-04-30T16:57:56.377Z,33.80
2023-04-30T17:00:14.238Z,34.00
2023-04-30T17:02:27.135Z,33.86
2023-04-30T17:04:40.341Z,33.79
2023-04-30T17:06:52.972Z,33.96
2023-04-30T17:09:05.850Z,34.12
2023-04-30T17:11:21.089Z,34.38
2023-04-30T17:13:33.690Z,34.57
2023-04-30T17:15:46.412Z,34.89
2023-04-30T17:17:59.088Z,35.21
2023-04-30T17:20:12.377Z,35.54
2023-04-30T17:22:25.003Z,35.96
2023-04-30T17:24:37.491Z,35.94
2023-04-30T17:26:51.031Z,36.38
2023-04-30T17:29:04.354Z,36.56
2023-04-30T17:31:17.015Z,37.02
2023-04-30T17:33:29.631Z,36.88
2023-04-30T17:35:42.424Z,37.11
2023-04-30T17:37:54.980Z,37.37
2023-04-30T17:40:08.231Z,37.65
2023-04-30T17:42:20.890Z,38.06
2023-04-30T17:44:35.125Z,38.04
2023-04-30T17:46:47.797Z,38.37
2023-04-30T17:49:04.193Z,38.51
2023-04-30T17:51:16.818Z,38.81
2023-04-30T17:53:29.407Z,39.14
2023-04-30T17:55:41.977Z,39.33
2023-04-30T17:57:55.440Z,39.81
2023-04-30T18:00:08.537Z,39.95
2023-04-30T18:02:21.164Z,40.08
2023-04-30T18:04:34.197Z,40.44
2023-04-30T18:06:50.272Z,41.06
2023-04-30T18:09:04.206Z,41.02
2023-04-30T18:11:16.801Z,41.98
2023-04-30T18:13:30.165Z,42.29
2023-04-30T18:15:42.747Z,42.44
2023-04-30T18:17:55.331Z,42.71
2023-04-30T18:20:08.483Z,42.54
2023-04-30T18:22:21.072Z,42.80
2023-04-30T18:24:33.562Z,43.63
2023-04-30T18:26:46.176Z,44.30
2023-04-30T18:28:59.003Z,44.59
2023-04-30T18:31:11.763Z,45.10
2023-04-30T18:33:24.435Z,45.51
2023-04-30T18:35:36.988Z,46.05
2023-04-30T18:37:49.720Z,46.50
2023-04-30T18:40:02.545Z,47.02
2023-04-30T18:42:15.205Z,47.16
2023-04-30T18:44:32.053Z,47.99
2023-04-30T18:46:44.645Z,48.26
2023-04-30T18:48:58.040Z,48.90
2023-04-30T18:51:10.682Z,49.07
2023-04-30T18:53:25.045Z,49.12
2023-04-30T18:55:38.099Z,49.02
2023-04-30T18:57:50.683Z,49.25
2023-04-30T19:00:04.111Z,49.82
2023-04-30T19:02:16.726Z,50.09
2023-04-30T19:04:29.529Z,50.93
2023-04-30T19:06:42.754Z,50.91
2023-04-30T19:08:55.850Z,51.31
2023-04-30T19:11:08.541Z,51.82
2023-04-30T19:13:21.464Z,52.26
2023-04-30T19:15:34.087Z,52.73
2023-04-30T19:17:46.683Z,53.07
2023-04-30T19:20:00.100Z,53.51
2023-04-30T19:22:12.788Z,54.01
2023-04-30T19:24:25.529Z,54.46
2023-04-30T19:26:38.270Z,54.49
2023-04-30T19:28:51.110Z,55.31
2023-04-30T19:31:04.109Z,56.30
2023-04-30T19:33:16.837Z,57.35
2023-04-30T19:35:29.433Z,57.95
2023-04-30T19:37:41.961Z,58.94
2023-04-30T19:39:54.694Z,59.48
2023-04-30T19:42:08.453Z,59.89
2023-04-30T19:44:21.035Z,60.17
2023-04-30T19:46:34.675Z,60.50
2023-04-30T19:48:47.429Z,60.68
2023-04-30T19:51:03.958Z,60.90
2023-04-30T19:53:17.312Z,61.17
2023-04-30T19:55:31.672Z,61.48
2023-04-30T19:57:44.888Z,61.97
2023-04-30T19:59:57.749Z,62.65
2023-04-30T20:02:10.766Z,62.75
2023-04-30T20:04:23.386Z,62.91
2023-04-30T20:06:36.011Z,62.90
2023-04-30T20:08:48.781Z,63.05
2023-04-30T20:11:03.289Z,62.94
2023-04-30T20:13:17.725Z,63.28
2023-04-30T20:15:30.728Z,63.91
2023-04-30T20:17:43.360Z,64.22
2023-04-30T20:19:56.892Z,64.83
2023-04-30T20:22:13.044Z,65.00
2023-04-30T20:24:25.746Z,65.53
2023-04-30T20:26:38.576Z,65.87
2023-04-30T20:28:51.403Z,66.03
2023-04-30T20:31:04.012Z,66.29
2023-04-30T20:33:16.651Z,66.57
2023-04-30T20:35:30.378Z,67.05
2023-04-30T20:37:42.939Z,67.64
2023-04-30T20:39:55.880Z,67.94
2023-04-30T20:42:08.889Z,68.22
2023-04-30T20:44:21.532Z,68.47
2023-04-30T20:46:34.222Z,68.80
2023-04-30T20:48:46.784Z,69.11
2023-04-30T20:50:59.334Z,69.26
2023-04-30T20:53:12.377Z,69.47
2023-04-30T20:55:24.992Z,69.62
2023-04-30T20:57:38.033Z,69.76
2023-04-30T20:59:50.600Z,69.81
2023-04-30T21:02:07.644Z,69.94
2023-04-30T21:04:20.302Z,70.24
2023-04-30T21:06:33.043Z,70.50
2023-04-30T21:08:46.001Z,70.93
2023-04-30T21:10:58.520Z,71.30
2023-04-30T21:13:12.807Z,71.58
2023-04-30T21:15:25.388Z,71.78
2023-04-30T21:17:38.136Z,72.20
2023-04-30T21:19:50.752Z,72.44
2023-04-30T21:22:03.463Z,72.81
2023-04-30T21:24:16.015Z,73.06
2023-04-30T21:26:28.541Z,73.16
2023-04-30T21:28:41.239Z,73.72
2023-04-30T21:30:54.370Z,73.85
2023-04-30T21:33:07.041Z,74.03
2023-04-30T21:35:19.786Z,74.40
2023-04-30T21:37:32.406Z,74.53
2023-04-30T21:39:45.025Z,74.66
2023-04-30T21:41:57.946Z,74.86
2023-04-30T21:44:10.509Z,74.96
2023-04-30T21:46:23.150Z,75.19
2023-04-30T21:48:38.240Z,75.44
2023-04-30T21:50:50.806Z,75.58
2023-04-30T21:53:03.443Z,75.57
2023-04-30T21:55:16.155Z,75.86
2023-04-30T21:57:28.745Z,76.04
2023-04-30T21:59:42.119Z,76.31
2023-04-30T22:01:54.675Z,76.56
2023-04-30T22:04:09.578Z,76.73
2023-04-30T22:06:22.475Z,76.86
2023-04-30T22:08:35.018Z,77.05
2023-04-30T22:10:47.740Z,77.60
2023-04-30T22:13:00.274Z,77.92
2023-04-30T22:15:13.699Z,78.11
2023-04-30T22:17:28.720Z,78.18
2023-04-30T22:19:41.251Z,78.43
2023-04-30T22:21:53.775Z,78.53
2023-04-30T22:24:06.940Z,78.75
2023-04-30T22:26:19.579Z,78.93
2023-04-30T22:28:32.087Z,79.18
2023-04-30T22:30:45.094Z,79.20
2023-04-30T22:32:57.920Z,79.47
2023-04-30T22:35:11.391Z,79.66
2023-04-30T22:37:24.381Z,79.99
2023-04-30T22:39:37.861Z,79.94
2023-04-30T22:41:50.712Z,80.05
2023-04-30T22:44:04.398Z,80.02
2023-04-30T22:46:17.615Z,80.10
2023-04-30T22:48:30.456Z,80.38
2023-04-30T22:50:43.265Z,80.63
2023-04-30T22:52:56.285Z,80.84
2023-04-30T22:55:09.446Z,81.12
2023-04-30T22:57:25.556Z,81.23
2023-04-30T22:59:39.379Z,80.98
2023-04-30T23:01:52.099Z,81.39
2023-04-30T23:04:05.230Z,81.69
2023-04-30T23:06:17.912Z,82.08
2023-04-30T23:08:31.051Z,82.23
2023-04-30T23:10:45.180Z,82.34
2023-04-30T23:12:58.734Z,82.46
2023-04-30T23:15:12.212Z,82.74
2023-04-30T23:17:24.758Z,83.20
2023-04-30T23:19:37.394Z,83.56
2023-04-30T23:21:49.927Z,83.60
2023-04-30T23:24:04.183Z,83.76
2023-04-30T23:26:17.125Z,83.78
2023-04-30T23:28:29.686Z,83.92
2023-04-30T23:30:42.835Z,84.05
2023-04-30T23:32:55.604Z,84.19
2023-04-30T23:35:08.985Z,84.35
2023-04-30T23:37:21.551Z,84.27
2023-04-30T23:39:34.061Z,84.41
2023-04-30T23:41:46.643Z,84.75
2023-04-30T23:43:59.200Z,84.80
2023-04-30T23:46:11.980Z,85.05
2023-04-30T23:48:24.770Z,85.18
2023-04-30T23:50:40.286Z,85.45
2023-04-30T23:52:54.018Z,85.86
2023-04-30T23:55:07.192Z,86.09
2023-04-30T23:57:19.922Z,86.22
2023-04-30T23:59:32.423Z,86.56
